sensor_id;sensor_type;location;lat;lon;timestamp;temperature;humidity
18717;DHT22;9487;50.892;6.906;2023-04-06T00:00:24;5.30;99.90
18717;DHT22;9487;50.892;6.906;2023-04-06T00:02:51;5.20;99.90
18717;DHT22;9487;50.892;6.906;2023-04-06T00:05:21;5.20;99.90
18717;DHT22;9487;50.892;6.906;2023-04-06T00:07:48;5.30;99.90
18717;DHT22;9487;50.892;6.906;2023-04-06T00:10:16;5.20;81.40
18717;DHT22;9487;50.892;6.906;2023-04-06T00:12:43;5.20;99.90
18717;DHT22;9487;50.892;6.906;2023-04-06T00:15:10;5.30;25.10
18717;DHT22;9487;50.892;6.906;2023-04-06T00:17:37;5.20;1.00
18717;DHT22;9487;50.892;6.906;2023-04-06T00:20:05;5.20;99.90
18717;DHT22;9487;50.892;6.906;2023-04-06T00:22:34;5.30;1.00
18717;DHT22;9487;50.892;6.906;2023-04-06T00:25:01;5.20;1.00
18717;DHT22;9487;50.892;6.906;2023-04-06T00:27:28;5.30;1.00
18717;DHT22;9487;50.892;6.906;2023-04-06T00:29:55;5.10;1.00
18717;DHT22;9487;50.892;6.906;2023-04-06T00:32:22;4.80;1.00
18717;DHT22;9487;50.892;6.906;2023-04-06T00:34:49;4.90;1.00
18717;DHT22;9487;50.892;6.906;2023-04-06T00:37:16;4.90;1.00
18717;DHT22;9487;50.892;6.906;2023-04-06T00:39:44;4.90;1.00
18717;DHT22;9487;50.892;6.906;2023-04-06T00:42:12;4.90;1.00
18717;DHT22;9487;50.892;6.906;2023-04-06T00:44:40;4.90;1.00
18717;DHT22;9487;50.892;6.906;2023-04-06T00:47:06;4.80;1.00
18717;DHT22;9487;50.892;6.906;2023-04-06T00:49:34;4.80;1.00
18717;DHT22;9487;50.892;6.906;2023-04-06T00:52:01;4.80;1.00
18717;DHT22;9487;50.892;6.906;2023-04-06T00:54:29;4.70;1.00
18717;DHT22;9487;50.892;6.906;2023-04-06T00:56:57;4.70;1.00
18717;DHT22;9487;50.892;6.906;2023-04-06T00:59:25;4.70;1.00
18717;DHT22;9487;50.892;6.906;2023-04-06T01:01:53;4.60;1.00
18717;DHT22;9487;50.892;6.906;2023-04-06T01:04:20;4.60;1.00
18717;DHT22;9487;50.892;6.906;2023-04-06T01:06:48;4.60;1.00
18717;DHT22;9487;50.892;6.906;2023-04-06T01:09:15;4.60;1.00
18717;DHT22;9487;50.892;6.906;2023-04-06T01:11:42;4.60;1.00
18717;DHT22;9487;50.892;6.906;2023-04-06T01:14:10;4.50;1.00
18717;DHT22;9487;50.892;6.906;2023-04-06T01:16:37;4.50;99.90
18717;DHT22;9487;50.892;6.906;2023-04-06T01:19:08;4.50;28.50
18717;DHT22;9487;50.892;6.906;2023-04-06T01:21:35;4.60;1.00
18717;DHT22;9487;50.892;6.906;2023-04-06T01:24:04;4.50;1.00
18717;DHT22;9487;50.892;6.906;2023-04-06T01:26:32;4.50;89.70
18717;DHT22;9487;50.892;6.906;2023-04-06T01:28:59;4.60;1.00
18717;DHT22;9487;50.892;6.906;2023-04-06T01:31:26;4.60;1.00
18717;DHT22;9487;50.892;6.906;2023-04-06T01:33:54;4.50;27.80
18717;DHT22;9487;50.892;6.906;2023-04-06T01:36:21;4.40;99.90
18717;DHT22;9487;50.892;6.906;2023-04-06T01:38:48;4.30;99.90
18717;DHT22;9487;50.892;6.906;2023-04-06T01:41:17;4.40;99.90
18717;DHT22;9487;50.892;6.906;2023-04-06T01:43:44;4.30;99.90
18717;DHT22;9487;50.892;6.906;2023-04-06T01:46:11;4.30;99.90
18717;DHT22;9487;50.892;6.906;2023-04-06T01:48:38;4.30;99.90
18717;DHT22;9487;50.892;6.906;2023-04-06T01:51:05;4.30;99.90
18717;DHT22;9487;50.892;6.906;2023-04-06T01:53:32;4.30;99.90
18717;DHT22;9487;50.892;6.906;2023-04-06T01:55:59;4.40;99.90
18717;DHT22;9487;50.892;6.906;2023-04-06T01:58:27;4.30;99.90
18717;DHT22;9487;50.892;6.906;2023-04-06T02:00:54;4.30;99.90
18717;DHT22;9487;50.892;6.906;2023-04-06T02:03:21;4.30;99.90
18717;DHT22;9487;50.892;6.906;2023-04-06T02:05:48;4.40;99.90
18717;DHT22;9487;50.892;6.906;2023-04-06T02:08:15;4.30;99.90
18717;DHT22;9487;50.892;6.906;2023-04-06T02:10:42;4.30;99.90
18717;DHT22;9487;50.892;6.906;2023-04-06T02:13:09;4.30;99.90
18717;DHT22;9487;50.892;6.906;2023-04-06T02:15:37;4.30;99.90
18717;DHT22;9487;50.892;6.906;2023-04-06T02:18:04;4.30;99.90
18717;DHT22;9487;50.892;6.906;2023-04-06T02:20:31;4.20;99.90
18717;DHT22;9487;50.892;6.906;2023-04-06T02:22:59;4.30;99.90
18717;DHT22;9487;50.892;6.906;2023-04-06T02:25:26;4.20;99.90
18717;DHT22;9487;50.892;6.906;2023-04-06T02:27:53;4.10;1.00
18717;DHT22;9487;50.892;6.906;2023-04-06T02:30:20;4.00;1.00
18717;DHT22;9487;50.892;6.906;2023-04-06T02:32:49;4.10;1.00
18717;DHT22;9487;50.892;6.906;2023-04-06T02:35:15;4.10;1.00
18717;DHT22;9487;50.892;6.906;2023-04-06T02:37:42;4.10;1.00
18717;DHT22;9487;50.892;6.906;2023-04-06T02:40:10;4.10;99.90
18717;DHT22;9487;50.892;6.906;2023-04-06T02:42:37;4.00;1.00
18717;DHT22;9487;50.892;6.906;2023-04-06T02:45:05;3.90;1.00
18717;DHT22;9487;50.892;6.906;2023-04-06T02:47:32;3.90;1.00
18717;DHT22;9487;50.892;6.906;2023-04-06T02:50:01;3.90;1.00
18717;DHT22;9487;50.892;6.906;2023-04-06T02:52:28;3.90;1.00
18717;DHT22;9487;50.892;6.906;2023-04-06T02:54:55;3.90;1.00
18717;DHT22;9487;50.892;6.906;2023-04-06T02:57:22;3.80;1.00
18717;DHT22;9487;50.892;6.906;2023-04-06T02:59:49;3.80;1.00
18717;DHT22;9487;50.892;6.906;2023-04-06T03:02:16;3.90;1.00
18717;DHT22;9487;50.892;6.906;2023-04-06T03:04:43;3.80;1.00
18717;DHT22;9487;50.892;6.906;2023-04-06T03:07:12;3.90;1.00
18717;DHT22;9487;50.892;6.906;2023-04-06T03:09:39;3.80;1.00
18717;DHT22;9487;50.892;6.906;2023-04-06T03:12:06;3.80;1.00
18717;DHT22;9487;50.892;6.906;2023-04-06T03:14:33;3.80;1.00
18717;DHT22;9487;50.892;6.906;2023-04-06T03:17:00;3.70;1.00
18717;DHT22;9487;50.892;6.906;2023-04-06T03:19:27;3.70;1.00
18717;DHT22;9487;50.892;6.906;2023-04-06T03:21:54;3.70;40.00
18717;DHT22;9487;50.892;6.906;2023-04-06T03:24:22;3.70;1.00
18717;DHT22;9487;50.892;6.906;2023-04-06T03:26:50;3.70;1.00
18717;DHT22;9487;50.892;6.906;2023-04-06T03:29:16;3.60;1.00
18717;DHT22;9487;50.892;6.906;2023-04-06T03:31:43;3.70;1.00
18717;DHT22;9487;50.892;6.906;2023-04-06T03:34:10;3.70;1.00
18717;DHT22;9487;50.892;6.906;2023-04-06T03:36:37;3.60;1.00
18717;DHT22;9487;50.892;6.906;2023-04-06T03:39:04;3.60;1.00
18717;DHT22;9487;50.892;6.906;2023-04-06T03:41:32;3.60;9.70
18717;DHT22;9487;50.892;6.906;2023-04-06T03:43:59;3.60;1.00
18717;DHT22;9487;50.892;6.906;2023-04-06T03:46:26;3.60;1.00
18717;DHT22;9487;50.892;6.906;2023-04-06T03:48:53;3.60;1.00
18717;DHT22;9487;50.892;6.906;2023-04-06T03:51:20;3.50;1.00
18717;DHT22;9487;50.892;6.906;2023-04-06T03:53:47;3.50;1.00
18717;DHT22;9487;50.892;6.906;2023-04-06T03:56:14;3.50;1.00
18717;DHT22;9487;50.892;6.906;2023-04-06T03:58:42;3.40;1.00
18717;DHT22;9487;50.892;6.906;2023-04-06T04:01:10;3.40;1.00
18717;DHT22;9487;50.892;6.906;2023-04-06T04:03:37;3.50;10.00
18717;DHT22;9487;50.892;6.906;2023-04-06T04:06:04;3.40;1.00
18717;DHT22;9487;50.892;6.906;2023-04-06T04:08:31;3.40;1.00
18717;DHT22;9487;50.892;6.906;2023-04-06T04:10:58;3.30;1.00
18717;DHT22;9487;50.892;6.906;2023-04-06T04:13:25;3.20;1.00
18717;DHT22;9487;50.892;6.906;2023-04-06T04:15:53;3.20;25.50
18717;DHT22;9487;50.892;6.906;2023-04-06T04:18:20;3.20;71.60
18717;DHT22;9487;50.892;6.906;2023-04-06T04:20:47;3.20;59.70
18717;DHT22;9487;50.892;6.906;2023-04-06T04:23:14;3.20;1.10
18717;DHT22;9487;50.892;6.906;2023-04-06T04:25:41;3.30;1.00
18717;DHT22;9487;50.892;6.906;2023-04-06T04:28:08;3.20;1.00
18717;DHT22;9487;50.892;6.906;2023-04-06T04:30:34;3.30;1.00
18717;DHT22;9487;50.892;6.906;2023-04-06T04:33:03;3.40;1.00
18717;DHT22;9487;50.892;6.906;2023-04-06T04:35:30;3.40;1.00
18717;DHT22;9487;50.892;6.906;2023-04-06T04:37:57;3.40;1.00
18717;DHT22;9487;50.892;6.906;2023-04-06T04:40:23;3.40;1.00
18717;DHT22;9487;50.892;6.906;2023-04-06T04:42:50;3.40;1.00
18717;DHT22;9487;50.892;6.906;2023-04-06T04:45:17;3.50;1.00
18717;DHT22;9487;50.892;6.906;2023-04-06T04:47:44;3.40;1.00
18717;DHT22;9487;50.892;6.906;2023-04-06T04:50:12;3.30;1.00
18717;DHT22;9487;50.892;6.906;2023-04-06T04:52:39;3.30;1.00
18717;DHT22;9487;50.892;6.906;2023-04-06T04:55:06;3.40;1.00
18717;DHT22;9487;50.892;6.906;2023-04-06T04:57:33;3.20;1.00
18717;DHT22;9487;50.892;6.906;2023-04-06T05:00:00;3.30;1.00
18717;DHT22;9487;50.892;6.906;2023-04-06T05:02:28;3.30;1.00
18717;DHT22;9487;50.892;6.906;2023-04-06T05:04:55;3.20;1.00
18717;DHT22;9487;50.892;6.906;2023-04-06T05:07:23;3.20;1.00
18717;DHT22;9487;50.892;6.906;2023-04-06T05:09:50;3.00;1.00
18717;DHT22;9487;50.892;6.906;2023-04-06T05:12:17;3.00;1.00
18717;DHT22;9487;50.892;6.906;2023-04-06T05:14:44;2.90;16.10
18717;DHT22;9487;50.892;6.906;2023-04-06T05:17:11;3.00;99.90
18717;DHT22;9487;50.892;6.906;2023-04-06T05:19:38;3.00;1.00
18717;DHT22;9487;50.892;6.906;2023-04-06T05:22:05;3.00;99.90
18717;DHT22;9487;50.892;6.906;2023-04-06T05:24:33;3.10;99.90
18717;DHT22;9487;50.892;6.906;2023-04-06T05:27:00;3.20;99.90
18717;DHT22;9487;50.892;6.906;2023-04-06T05:29:28;3.30;99.90
18717;DHT22;9487;50.892;6.906;2023-04-06T05:31:56;3.40;99.90
18717;DHT22;9487;50.892;6.906;2023-04-06T05:34:23;3.50;29.60
18717;DHT22;9487;50.892;6.906;2023-04-06T05:36:49;3.40;1.00
18717;DHT22;9487;50.892;6.906;2023-04-06T05:39:16;3.40;1.00
18717;DHT22;9487;50.892;6.906;2023-04-06T05:41:45;3.50;1.00
18717;DHT22;9487;50.892;6.906;2023-04-06T05:44:11;3.50;1.00
18717;DHT22;9487;50.892;6.906;2023-04-06T05:46:38;3.40;1.00
18717;DHT22;9487;50.892;6.906;2023-04-06T05:49:05;3.50;99.90
18717;DHT22;9487;50.892;6.906;2023-04-06T05:51:32;3.70;99.90
18717;DHT22;9487;50.892;6.906;2023-04-06T05:53:59;3.70;99.90
18717;DHT22;9487;50.892;6.906;2023-04-06T05:56:26;3.80;37.10
18717;DHT22;9487;50.892;6.906;2023-04-06T05:58:54;4.40;99.90
18717;DHT22;9487;50.892;6.906;2023-04-06T06:01:21;4.90;99.90
18717;DHT22;9487;50.892;6.906;2023-04-06T06:03:48;5.30;99.90
18717;DHT22;9487;50.892;6.906;2023-04-06T06:06:15;5.70;68.70
18717;DHT22;9487;50.892;6.906;2023-04-06T06:08:42;6.00;99.90
18717;DHT22;9487;50.892;6.906;2023-04-06T06:11:09;5.70;1.00
18717;DHT22;9487;50.892;6.906;2023-04-06T06:13:36;5.70;99.90
18717;DHT22;9487;50.892;6.906;2023-04-06T06:16:04;5.70;1.00
18717;DHT22;9487;50.892;6.906;2023-04-06T06:18:31;5.60;99.90
18717;DHT22;9487;50.892;6.906;2023-04-06T06:20:58;5.50;1.00
18717;DHT22;9487;50.892;6.906;2023-04-06T06:23:25;5.40;1.00
18717;DHT22;9487;50.892;6.906;2023-04-06T06:25:52;5.40;1.00
18717;DHT22;9487;50.892;6.906;2023-04-06T06:28:19;5.40;99.40
18717;DHT22;9487;50.892;6.906;2023-04-06T06:30:46;5.60;1.00
18717;DHT22;9487;50.892;6.906;2023-04-06T06:33:15;5.70;1.00
18717;DHT22;9487;50.892;6.906;2023-04-06T06:35:42;5.90;99.90
18717;DHT22;9487;50.892;6.906;2023-04-06T06:38:09;6.10;99.90
18717;DHT22;9487;50.892;6.906;2023-04-06T06:40:36;6.20;1.00
18717;DHT22;9487;50.892;6.906;2023-04-06T06:43:03;6.40;1.00
18717;DHT22;9487;50.892;6.906;2023-04-06T06:45:30;6.30;1.00
18717;DHT22;9487;50.892;6.906;2023-04-06T06:47:57;6.00;99.90
18717;DHT22;9487;50.892;6.906;2023-04-06T06:50:25;6.20;99.90
18717;DHT22;9487;50.892;6.906;2023-04-06T06:52:52;6.10;1.00
18717;DHT22;9487;50.892;6.906;2023-04-06T06:55:19;6.10;99.90
18717;DHT22;9487;50.892;6.906;2023-04-06T06:57:46;6.10;99.90
18717;DHT22;9487;50.892;6.906;2023-04-06T07:00:14;6.10;99.90
18717;DHT22;9487;50.892;6.906;2023-04-06T07:02:40;6.10;1.00
18717;DHT22;9487;50.892;6.906;2023-04-06T07:05:08;6.30;18.30
18717;DHT22;9487;50.892;6.906;2023-04-06T07:07:36;6.50;1.00
18717;DHT22;9487;50.892;6.906;2023-04-06T07:10:03;6.60;1.00
18717;DHT22;9487;50.892;6.906;2023-04-06T07:12:30;6.90;1.00
18717;DHT22;9487;50.892;6.906;2023-04-06T07:14:57;7.20;99.90
18717;DHT22;9487;50.892;6.906;2023-04-06T07:17:24;7.40;1.00
18717;DHT22;9487;50.892;6.906;2023-04-06T07:19:51;7.60;1.00
18717;DHT22;9487;50.892;6.906;2023-04-06T07:22:18;7.90;22.90
18717;DHT22;9487;50.892;6.906;2023-04-06T07:24:46;8.10;1.00
18717;DHT22;9487;50.892;6.906;2023-04-06T07:27:13;8.30;1.00
18717;DHT22;9487;50.892;6.906;2023-04-06T07:29:41;8.50;53.60
18717;DHT22;9487;50.892;6.906;2023-04-06T07:32:08;8.60;99.90
18717;DHT22;9487;50.892;6.906;2023-04-06T07:34:35;8.50;99.90
18717;DHT22;9487;50.892;6.906;2023-04-06T07:37:02;8.50;1.00
18717;DHT22;9487;50.892;6.906;2023-04-06T07:39:29;8.40;1.00
18717;DHT22;9487;50.892;6.906;2023-04-06T07:41:57;8.20;25.20
18717;DHT22;9487;50.892;6.906;2023-04-06T07:44:24;8.00;99.90
18717;DHT22;9487;50.892;6.906;2023-04-06T07:46:51;8.00;99.90
18717;DHT22;9487;50.892;6.906;2023-04-06T07:49:18;8.00;99.90
18717;DHT22;9487;50.892;6.906;2023-04-06T07:51:46;8.30;32.20
18717;DHT22;9487;50.892;6.906;2023-04-06T07:54:13;8.50;1.00
18717;DHT22;9487;50.892;6.906;2023-04-06T07:56:40;8.50;1.00
18717;DHT22;9487;50.892;6.906;2023-04-06T07:59:08;8.40;1.00
18717;DHT22;9487;50.892;6.906;2023-04-06T08:01:36;8.50;1.00
18717;DHT22;9487;50.892;6.906;2023-04-06T08:04:03;8.70;1.00
18717;DHT22;9487;50.892;6.906;2023-04-06T08:06:30;9.00;99.90
18717;DHT22;9487;50.892;6.906;2023-04-06T08:08:57;9.20;46.20
18717;DHT22;9487;50.892;6.906;2023-04-06T08:11:24;9.30;1.00
18717;DHT22;9487;50.892;6.906;2023-04-06T08:13:52;9.40;1.00
18717;DHT22;9487;50.892;6.906;2023-04-06T08:16:20;9.60;1.00
18717;DHT22;9487;50.892;6.906;2023-04-06T08:18:47;9.50;1.00
18717;DHT22;9487;50.892;6.906;2023-04-06T08:21:14;9.60;1.00
18717;DHT22;9487;50.892;6.906;2023-04-06T08:23:41;9.60;1.00
18717;DHT22;9487;50.892;6.906;2023-04-06T08:26:07;9.70;1.00
18717;DHT22;9487;50.892;6.906;2023-04-06T08:28:35;9.70;1.00
18717;DHT22;9487;50.892;6.906;2023-04-06T08:31:04;9.70;1.00
18717;DHT22;9487;50.892;6.906;2023-04-06T08:33:33;9.70;1.00
18717;DHT22;9487;50.892;6.906;2023-04-06T08:36:10;9.80;1.00
18717;DHT22;9487;50.892;6.906;2023-04-06T08:38:38;9.90;1.00
18717;DHT22;9487;50.892;6.906;2023-04-06T08:41:08;10.10;99.90
18717;DHT22;9487;50.892;6.906;2023-04-06T08:43:42;10.40;99.90
18717;DHT22;9487;50.892;6.906;2023-04-06T08:46:10;10.40;99.90
18717;DHT22;9487;50.892;6.906;2023-04-06T08:48:41;10.80;1.00
18717;DHT22;9487;50.892;6.906;2023-04-06T08:51:08;10.80;1.00
18717;DHT22;9487;50.892;6.906;2023-04-06T08:53:35;11.00;1.00
18717;DHT22;9487;50.892;6.906;2023-04-06T08:56:03;11.00;99.90
18717;DHT22;9487;50.892;6.906;2023-04-06T08:58:33;11.10;99.90
18717;DHT22;9487;50.892;6.906;2023-04-06T09:01:02;11.20;99.90
18717;DHT22;9487;50.892;6.906;2023-04-06T09:03:35;11.30;99.90
18717;DHT22;9487;50.892;6.906;2023-04-06T09:06:05;11.30;99.90
18717;DHT22;9487;50.892;6.906;2023-04-06T09:08:32;11.20;99.90
18717;DHT22;9487;50.892;6.906;2023-04-06T09:11:00;11.30;99.90
18717;DHT22;9487;50.892;6.906;2023-04-06T09:13:27;11.50;99.90
18717;DHT22;9487;50.892;6.906;2023-04-06T09:16:01;11.60;99.90
18717;DHT22;9487;50.892;6.906;2023-04-06T09:18:28;11.60;99.90
18717;DHT22;9487;50.892;6.906;2023-04-06T09:21:00;11.60;99.90
18717;DHT22;9487;50.892;6.906;2023-04-06T09:23:29;11.60;99.90
18717;DHT22;9487;50.892;6.906;2023-04-06T09:26:06;11.70;99.90
18717;DHT22;9487;50.892;6.906;2023-04-06T09:28:44;11.80;99.90
18717;DHT22;9487;50.892;6.906;2023-04-06T09:31:12;11.90;98.00
18717;DHT22;9487;50.892;6.906;2023-04-06T09:33:41;11.80;25.10
18717;DHT22;9487;50.892;6.906;2023-04-06T09:36:08;11.80;99.20
18717;DHT22;9487;50.892;6.906;2023-04-06T09:38:38;11.90;99.90
18717;DHT22;9487;50.892;6.906;2023-04-06T09:41:05;12.00;1.00
18717;DHT22;9487;50.892;6.906;2023-04-06T09:43:32;12.10;99.90
18717;DHT22;9487;50.892;6.906;2023-04-06T09:46:00;12.20;88.50
18717;DHT22;9487;50.892;6.906;2023-04-06T09:48:31;12.20;99.90
18717;DHT22;9487;50.892;6.906;2023-04-06T09:51:01;12.20;99.90
18717;DHT22;9487;50.892;6.906;2023-04-06T09:53:31;12.20;99.90
18717;DHT22;9487;50.892;6.906;2023-04-06T09:56:02;12.30;76.80
18717;DHT22;9487;50.892;6.906;2023-04-06T09:58:33;12.50;15.10
18717;DHT22;9487;50.892;6.906;2023-04-06T10:01:05;12.70;43.10
18717;DHT22;9487;50.892;6.906;2023-04-06T10:03:40;13.00;1.60
18717;DHT22;9487;50.892;6.906;2023-04-06T10:06:11;13.20;1.00
18717;DHT22;9487;50.892;6.906;2023-04-06T10:08:40;13.20;1.00
18717;DHT22;9487;50.892;6.906;2023-04-06T10:11:09;13.10;1.00
18717;DHT22;9487;50.892;6.906;2023-04-06T10:13:36;13.20;1.00
18717;DHT22;9487;50.892;6.906;2023-04-06T10:16:04;13.20;1.00
18717;DHT22;9487;50.892;6.906;2023-04-06T10:18:31;13.10;1.00
18717;DHT22;9487;50.892;6.906;2023-04-06T10:21:04;13.10;36.30
18717;DHT22;9487;50.892;6.906;2023-04-06T10:23:34;13.20;1.00
18717;DHT22;9487;50.892;6.906;2023-04-06T10:26:02;13.30;1.00
18717;DHT22;9487;50.892;6.906;2023-04-06T10:28:33;13.20;1.00
18717;DHT22;9487;50.892;6.906;2023-04-06T10:31:02;13.20;1.00
18717;DHT22;9487;50.892;6.906;2023-04-06T10:33:30;13.20;1.00
18717;DHT22;9487;50.892;6.906;2023-04-06T10:35:58;13.40;1.00
18717;DHT22;9487;50.892;6.906;2023-04-06T10:38:36;13.50;1.00
18717;DHT22;9487;50.892;6.906;2023-04-06T10:41:04;13.40;1.00
18717;DHT22;9487;50.892;6.906;2023-04-06T10:43:35;13.50;1.00
18717;DHT22;9487;50.892;6.906;2023-04-06T10:46:02;13.50;1.00
18717;DHT22;9487;50.892;6.906;2023-04-06T10:48:37;13.50;1.00
18717;DHT22;9487;50.892;6.906;2023-04-06T10:51:08;13.70;1.00
18717;DHT22;9487;50.892;6.906;2023-04-06T10:53:35;13.70;1.00
18717;DHT22;9487;50.892;6.906;2023-04-06T10:56:02;13.60;1.00
18717;DHT22;9487;50.892;6.906;2023-04-06T10:58:30;13.70;1.00
18717;DHT22;9487;50.892;6.906;2023-04-06T11:00:58;13.60;99.90
18717;DHT22;9487;50.892;6.906;2023-04-06T11:03:26;13.70;99.90
18717;DHT22;9487;50.892;6.906;2023-04-06T11:05:53;13.70;99.90
18717;DHT22;9487;50.892;6.906;2023-04-06T11:08:25;13.60;99.90
18717;DHT22;9487;50.892;6.906;2023-04-06T11:10:52;13.60;99.90
18717;DHT22;9487;50.892;6.906;2023-04-06T11:13:19;13.50;99.90
18717;DHT22;9487;50.892;6.906;2023-04-06T11:15:46;13.40;99.90
18717;DHT22;9487;50.892;6.906;2023-04-06T11:18:19;13.50;99.90
18717;DHT22;9487;50.892;6.906;2023-04-06T11:20:47;13.50;99.90
18717;DHT22;9487;50.892;6.906;2023-04-06T11:23:22;13.50;99.90
18717;DHT22;9487;50.892;6.906;2023-04-06T11:25:51;13.30;99.90
18717;DHT22;9487;50.892;6.906;2023-04-06T11:28:18;13.20;99.90
18717;DHT22;9487;50.892;6.906;2023-04-06T11:30:45;13.20;99.90
18717;DHT22;9487;50.892;6.906;2023-04-06T11:33:21;13.20;99.90
18717;DHT22;9487;50.892;6.906;2023-04-06T11:35:48;13.30;99.90
18717;DHT22;9487;50.892;6.906;2023-04-06T11:38:16;13.30;99.90
18717;DHT22;9487;50.892;6.906;2023-04-06T11:40:44;13.40;99.90
18717;DHT22;9487;50.892;6.906;2023-04-06T11:43:11;13.50;99.90
18717;DHT22;9487;50.892;6.906;2023-04-06T11:45:42;13.50;1.00
18717;DHT22;9487;50.892;6.906;2023-04-06T11:48:18;13.70;99.90
18717;DHT22;9487;50.892;6.906;2023-04-06T11:50:48;13.70;99.90
18717;DHT22;9487;50.892;6.906;2023-04-06T11:53:21;13.70;99.90
18717;DHT22;9487;50.892;6.906;2023-04-06T11:55:48;13.80;99.90
18717;DHT22;9487;50.892;6.906;2023-04-06T11:58:15;13.80;99.90
18717;DHT22;9487;50.892;6.906;2023-04-06T12:00:43;13.70;99.90
18717;DHT22;9487;50.892;6.906;2023-04-06T12:03:11;13.70;99.90
18717;DHT22;9487;50.892;6.906;2023-04-06T12:05:38;13.80;99.90
18717;DHT22;9487;50.892;6.906;2023-04-06T12:08:06;13.90;99.90
18717;DHT22;9487;50.892;6.906;2023-04-06T12:10:33;13.90;99.90
18717;DHT22;9487;50.892;6.906;2023-04-06T12:13:00;14.00;99.90
18717;DHT22;9487;50.892;6.906;2023-04-06T12:15:27;14.00;99.90
18717;DHT22;9487;50.892;6.906;2023-04-06T12:17:54;13.90;99.90
18717;DHT22;9487;50.892;6.906;2023-04-06T12:20:20;13.90;99.90
18717;DHT22;9487;50.892;6.906;2023-04-06T12:22:47;14.00;99.90
18717;DHT22;9487;50.892;6.906;2023-04-06T12:25:16;14.10;99.90
18717;DHT22;9487;50.892;6.906;2023-04-06T12:27:43;14.10;99.90
18717;DHT22;9487;50.892;6.906;2023-04-06T12:30:10;14.10;1.00
18717;DHT22;9487;50.892;6.906;2023-04-06T12:32:37;14.00;99.90
18717;DHT22;9487;50.892;6.906;2023-04-06T12:35:04;13.90;99.90
18717;DHT22;9487;50.892;6.906;2023-04-06T12:37:31;13.70;99.90
18717;DHT22;9487;50.892;6.906;2023-04-06T12:39:58;13.60;99.90
18717;DHT22;9487;50.892;6.906;2023-04-06T12:42:27;13.60;99.90
18717;DHT22;9487;50.892;6.906;2023-04-06T12:44:54;13.60;99.90
18717;DHT22;9487;50.892;6.906;2023-04-06T12:47:20;13.60;99.90
18717;DHT22;9487;50.892;6.906;2023-04-06T12:49:48;13.60;99.90
18717;DHT22;9487;50.892;6.906;2023-04-06T12:52:15;13.70;99.90
18717;DHT22;9487;50.892;6.906;2023-04-06T12:54:42;13.70;99.90
18717;DHT22;9487;50.892;6.906;2023-04-06T12:57:10;13.70;99.90
18717;DHT22;9487;50.892;6.906;2023-04-06T12:59:38;13.60;99.90
18717;DHT22;9487;50.892;6.906;2023-04-06T13:02:05;13.50;1.00
18717;DHT22;9487;50.892;6.906;2023-04-06T13:04:32;13.30;1.00
18717;DHT22;9487;50.892;6.906;2023-04-06T13:06:59;13.20;1.00
18717;DHT22;9487;50.892;6.906;2023-04-06T13:09:26;13.30;1.00
18717;DHT22;9487;50.892;6.906;2023-04-06T13:11:53;13.30;1.00
18717;DHT22;9487;50.892;6.906;2023-04-06T13:14:21;13.30;1.00
18717;DHT22;9487;50.892;6.906;2023-04-06T13:16:49;13.20;1.00
18717;DHT22;9487;50.892;6.906;2023-04-06T13:19:16;13.20;1.00
18717;DHT22;9487;50.892;6.906;2023-04-06T13:21:43;13.10;1.00
18717;DHT22;9487;50.892;6.906;2023-04-06T13:24:10;13.10;1.00
18717;DHT22;9487;50.892;6.906;2023-04-06T13:26:37;13.10;1.00
18717;DHT22;9487;50.892;6.906;2023-04-06T13:29:04;13.10;1.00
18717;DHT22;9487;50.892;6.906;2023-04-06T13:31:31;12.90;1.00
18717;DHT22;9487;50.892;6.906;2023-04-06T13:33:59;12.80;1.00
18717;DHT22;9487;50.892;6.906;2023-04-06T13:36:26;12.70;1.00
18717;DHT22;9487;50.892;6.906;2023-04-06T13:38:53;12.50;1.00
18717;DHT22;9487;50.892;6.906;2023-04-06T13:41:21;12.30;99.90
18717;DHT22;9487;50.892;6.906;2023-04-06T13:43:48;12.20;99.90
18717;DHT22;9487;50.892;6.906;2023-04-06T13:46:15;12.10;99.90
18717;DHT22;9487;50.892;6.906;2023-04-06T13:48:42;12.10;1.00
18717;DHT22;9487;50.892;6.906;2023-04-06T13:51:11;12.00;1.00
18717;DHT22;9487;50.892;6.906;2023-04-06T13:53:39;11.90;1.00
18717;DHT22;9487;50.892;6.906;2023-04-06T13:56:06;11.80;1.00
18717;DHT22;9487;50.892;6.906;2023-04-06T13:58:33;11.80;99.90
18717;DHT22;9487;50.892;6.906;2023-04-06T14:01:05;11.70;99.90
18717;DHT22;9487;50.892;6.906;2023-04-06T14:03:32;11.60;1.00
18717;DHT22;9487;50.892;6.906;2023-04-06T14:05:59;11.60;99.90
18717;DHT22;9487;50.892;6.906;2023-04-06T14:08:27;11.60;99.90
18717;DHT22;9487;50.892;6.906;2023-04-06T14:10:54;11.50;1.00
18717;DHT22;9487;50.892;6.906;2023-04-06T14:13:21;11.50;99.90
18717;DHT22;9487;50.892;6.906;2023-04-06T14:15:53;11.50;99.90
18717;DHT22;9487;50.892;6.906;2023-04-06T14:18:20;11.50;99.90
18717;DHT22;9487;50.892;6.906;2023-04-06T14:20:53;11.60;99.90
18717;DHT22;9487;50.892;6.906;2023-04-06T14:23:20;11.60;99.90
18717;DHT22;9487;50.892;6.906;2023-04-06T14:25:49;11.70;1.00
18717;DHT22;9487;50.892;6.906;2023-04-06T14:28:15;11.80;1.00
18717;DHT22;9487;50.892;6.906;2023-04-06T14:30:42;11.70;1.00
18717;DHT22;9487;50.892;6.906;2023-04-06T14:33:09;11.60;99.90
18717;DHT22;9487;50.892;6.906;2023-04-06T14:35:38;11.60;1.00
18717;DHT22;9487;50.892;6.906;2023-04-06T14:38:05;11.50;91.40
18717;DHT22;9487;50.892;6.906;2023-04-06T14:40:34;11.50;1.00
18717;DHT22;9487;50.892;6.906;2023-04-06T14:43:03;11.50;99.90
18717;DHT22;9487;50.892;6.906;2023-04-06T14:45:33;11.40;1.00
18717;DHT22;9487;50.892;6.906;2023-04-06T14:47:59;11.40;1.00
18717;DHT22;9487;50.892;6.906;2023-04-06T14:50:26;11.50;1.00
18717;DHT22;9487;50.892;6.906;2023-04-06T14:52:53;11.30;78.70
18717;DHT22;9487;50.892;6.906;2023-04-06T14:55:20;11.20;1.00
18717;DHT22;9487;50.892;6.906;2023-04-06T14:57:47;11.10;1.00
18717;DHT22;9487;50.892;6.906;2023-04-06T15:00:16;11.00;99.90
18717;DHT22;9487;50.892;6.906;2023-04-06T15:02:43;10.90;99.90
18717;DHT22;9487;50.892;6.906;2023-04-06T15:05:09;10.80;99.90
18717;DHT22;9487;50.892;6.906;2023-04-06T15:07:37;10.70;99.90
18717;DHT22;9487;50.892;6.906;2023-04-06T15:10:04;10.80;1.00
18717;DHT22;9487;50.892;6.906;2023-04-06T15:12:31;10.70;1.00
18717;DHT22;9487;50.892;6.906;2023-04-06T15:14:58;10.70;1.00
18717;DHT22;9487;50.892;6.906;2023-04-06T15:17:27;10.60;1.00
18717;DHT22;9487;50.892;6.906;2023-04-06T15:19:54;10.50;99.90
18717;DHT22;9487;50.892;6.906;2023-04-06T15:22:21;10.40;99.90
18717;DHT22;9487;50.892;6.906;2023-04-06T15:24:48;10.40;99.90
18717;DHT22;9487;50.892;6.906;2023-04-06T15:27:14;10.30;99.90
18717;DHT22;9487;50.892;6.906;2023-04-06T15:29:41;10.10;99.90
18717;DHT22;9487;50.892;6.906;2023-04-06T15:32:08;10.10;1.00
18717;DHT22;9487;50.892;6.906;2023-04-06T15:34:36;10.00;1.00
18717;DHT22;9487;50.892;6.906;2023-04-06T15:37:03;9.90;1.00
18717;DHT22;9487;50.892;6.906;2023-04-06T15:39:30;10.00;1.00
18717;DHT22;9487;50.892;6.906;2023-04-06T15:41:57;9.90;78.50
18717;DHT22;9487;50.892;6.906;2023-04-06T15:44:25;9.90;99.90
18717;DHT22;9487;50.892;6.906;2023-04-06T15:46:52;9.80;48.40
18717;DHT22;9487;50.892;6.906;2023-04-06T15:49:18;9.70;35.20
18717;DHT22;9487;50.892;6.906;2023-04-06T15:51:48;9.70;99.90
18717;DHT22;9487;50.892;6.906;2023-04-06T15:54:15;9.70;99.90
18717;DHT22;9487;50.892;6.906;2023-04-06T15:56:42;9.70;99.90
18717;DHT22;9487;50.892;6.906;2023-04-06T15:59:09;9.70;99.90
18717;DHT22;9487;50.892;6.906;2023-04-06T16:01:36;9.70;99.90
18717;DHT22;9487;50.892;6.906;2023-04-06T16:04:06;9.60;99.90